createdAt,value
2023-05-20T00:02:07.319Z,98308.05
2023-05-20T00:04:36.257Z,98306.84
2023-05-20T00:07:07.912Z,98309.91
2023-05-20T00:09:38.468Z,98309.59
2023-05-20T00:12:07.363Z,98310.60
2023-05-20T00:14:36.135Z,98307.12
2023-05-20T00:17:07.462Z,98309.66
2023-05-20T00:19:36.162Z,98305.95
2023-05-20T00:22:09.692Z,98302.82
2023-05-20T00:24:41.367Z,98302.38
2023-05-20T00:27:12.386Z,98300.11
2023-05-20T00:29:44.192Z,98300.98
2023-05-20T00:32:12.829Z,98303.83
2023-05-20T00:34:43.741Z,98301.30
2023-05-20T00:37:12.450Z,98295.82
2023-05-20T00:39:46.599Z,98290.88
2023-05-20T00:42:22.481Z,98289.45
2023-05-20T00:44:54.250Z,98287.15
2023-05-20T00:47:33.098Z,98282.98
2023-05-20T00:50:02.481Z,98283.27
2023-05-20T00:52:33.097Z,98284.27
2023-05-20T00:55:04.119Z,98285.98
2023-05-20T00:57:32.718Z,98292.10
2023-05-20T01:00:01.668Z,98297.47
2023-05-20T01:02:31.357Z,98294.41
2023-05-20T01:05:00.010Z,98288.66
2023-05-20T01:07:32.180Z,98286.19
2023-05-20T01:10:01.445Z,98289.80
2023-05-20T01:12:46.746Z,98286.14
2023-05-20T01:15:16.832Z,98288.59
2023-05-20T01:21:16.266Z,98287.05
2023-05-20T01:23:50.220Z,98286.27
2023-05-20T01:26:19.784Z,98283.05
2023-05-20T01:28:54.212Z,98283.59
2023-05-20T01:31:27.945Z,98280.02
2023-05-20T01:34:01.655Z,98280.27
2023-05-20T01:36:34.754Z,98279.28
2023-05-20T01:39:06.093Z,98280.84
2023-05-20T01:41:38.425Z,98278.01
2023-05-20T01:44:10.117Z,98277.47
2023-05-20T01:46:38.898Z,98276.32
2023-05-20T01:49:07.590Z,98274.11
2023-05-20T01:51:37.256Z,98271.60
2023-05-20T01:54:05.965Z,98268.76
2023-05-20T01:56:34.776Z,98269.06
2023-05-20T01:59:03.421Z,98268.54
2023-05-20T02:01:31.962Z,98267.91
2023-05-20T02:04:06.247Z,98269.89
2023-05-20T02:06:36.381Z,98272.04
2023-05-20T02:09:05.336Z,98274.75
2023-05-20T02:11:33.859Z,98278.38
2023-05-20T02:14:04.839Z,98279.61
2023-05-20T02:16:33.574Z,98279.71
2023-05-20T02:19:02.346Z,98281.19
2023-05-20T02:21:31.433Z,98273.93
2023-05-20T02:24:00.097Z,98274.19
2023-05-20T02:26:29.105Z,98270.27
2023-05-20T02:28:57.655Z,98270.33
2023-05-20T02:31:26.328Z,98272.83
2023-05-20T02:33:54.937Z,98274.11
2023-05-20T02:36:23.623Z,98277.05
2023-05-20T02:38:54.531Z,98275.84
2023-05-20T02:41:23.542Z,98276.40
2023-05-20T02:43:52.076Z,98275.44
2023-05-20T02:46:20.690Z,98277.91
2023-05-20T02:48:49.213Z,98278.90
2023-05-20T02:51:17.861Z,98279.86
2023-05-20T02:53:49.112Z,98282.45
2023-05-20T02:56:21.603Z,98283.50
2023-05-20T02:58:50.196Z,98285.77
2023-05-20T03:01:18.996Z,98289.56
2023-05-20T03:03:47.646Z,98291.05
2023-05-20T03:06:16.238Z,98292.54
2023-05-20T03:08:45.120Z,98302.27
2023-05-20T03:11:13.658Z,98309.46
2023-05-20T03:13:42.450Z,98310.90
2023-05-20T03:16:13.415Z,98315.45
2023-05-20T03:18:42.150Z,98319.34
2023-05-20T03:21:10.864Z,98316.55
2023-05-20T03:23:39.756Z,98319.28
2023-05-20T03:26:09.320Z,98314.83
2023-05-20T03:28:37.940Z,98317.20
2023-05-20T03:31:06.827Z,98318.29
2023-05-20T03:33:36.187Z,98317.77
2023-05-20T03:36:05.341Z,98315.73
2023-05-20T03:38:35.244Z,98319.23
2023-05-20T03:41:04.018Z,98324.34
2023-05-20T03:43:34.649Z,98319.81
2023-05-20T03:46:03.322Z,98319.41
2023-05-20T03:48:31.995Z,98317.27
2023-05-20T03:51:02.210Z,98313.98
2023-05-20T03:53:31.121Z,98313.98
2023-05-20T03:55:59.709Z,98308.77
2023-05-20T03:58:29.580Z,98308.94
2023-05-20T04:00:58.731Z,98308.27
2023-05-20T04:03:29.204Z,98311.23
2023-05-20T04:05:57.893Z,98307.85
2023-05-20T04:08:26.892Z,98310.84
2023-05-20T04:10:58.334Z,98317.63
2023-05-20T04:13:26.999Z,98318.85
2023-05-20T04:15:56.386Z,98322.33
2023-05-20T04:18:25.139Z,98328.51
2023-05-20T04:20:56.681Z,98333.21
2023-05-20T04:23:25.907Z,98334.15
2023-05-20T04:25:55.725Z,98334.55
2023-05-20T04:28:28.472Z,98332.98
2023-05-20T04:31:05.100Z,98331.17
2023-05-20T04:33:38.206Z,98332.97
2023-05-20T04:36:12.287Z,98333.88
2023-05-20T04:38:42.494Z,98337.96
2023-05-20T04:41:11.710Z,98340.83
2023-05-20T04:43:40.563Z,98341.27
2023-05-20T04:46:09.971Z,98342.67
2023-05-20T04:48:38.757Z,98345.70
2023-05-20T04:51:07.395Z,98348.41
2023-05-20T04:53:36.226Z,98348.61
2023-05-20T04:56:06.014Z,98349.05
2023-05-20T04:58:34.806Z,98345.90
2023-05-20T05:01:03.447Z,98346.11
2023-05-20T05:03:32.178Z,98347.09
2023-05-20T05:06:00.799Z,98346.09
2023-05-20T05:08:29.431Z,98341.58
2023-05-20T05:11:00.545Z,98339.64
2023-05-20T05:13:31.281Z,98336.44
2023-05-20T05:16:03.814Z,98334.34
2023-05-20T05:18:33.091Z,98332.59
2023-05-20T05:21:03.949Z,98328.86
2023-05-20T05:23:33.536Z,98325.48
2023-05-20T05:26:02.438Z,98326.34
2023-05-20T05:28:35.522Z,98324.16
2023-05-20T05:31:04.235Z,98327.11
2023-05-20T05:33:32.850Z,98326.66
2023-05-20T05:36:02.860Z,98331.27
2023-05-20T05:38:34.431Z,98332.85
2023-05-20T05:41:05.480Z,98330.19
2023-05-20T05:43:35.919Z,98325.70
2023-05-20T05:46:05.479Z,98325.78
2023-05-20T05:48:34.380Z,98332.09
2023-05-20T05:51:03.114Z,98333.77
2023-05-20T05:53:32.343Z,98332.71
2023-05-20T05:56:06.097Z,98331.21
2023-05-20T05:58:34.877Z,98332.77
2023-05-20T06:01:04.559Z,98336.13
2023-05-20T06:03:35.966Z,98334.70
2023-05-20T06:06:04.673Z,98331.27
2023-05-20T06:08:38.320Z,98326.58
2023-05-20T06:11:08.080Z,98322.99
2023-05-20T06:13:37.163Z,98325.39
2023-05-20T06:16:05.896Z,98324.17
2023-05-20T06:18:34.531Z,98322.86
2023-05-20T06:21:11.164Z,98321.17
2023-05-20T06:23:39.714Z,98321.65
2023-05-20T06:26:11.401Z,98319.77
2023-05-20T06:28:40.170Z,98314.20
2023-05-20T06:31:12.806Z,98311.73
2023-05-20T06:33:41.910Z,98308.95
2023-05-20T06:36:14.331Z,98307.77
2023-05-20T06:38:45.075Z,98305.41
2023-05-20T06:41:15.896Z,98306.80
2023-05-20T06:43:48.865Z,98297.81
2023-05-20T06:46:53.362Z,98295.63
2023-05-20T06:49:22.966Z,98299.64
2023-05-20T06:51:52.904Z,98296.16
2023-05-20T06:54:22.285Z,98296.48
2023-05-20T06:56:50.954Z,98292.86
2023-05-20T06:59:19.619Z,98289.27
2023-05-20T07:01:49.293Z,98282.61
2023-05-20T07:04:18.130Z,98279.38
2023-05-20T07:06:46.871Z,98274.21
2023-05-20T07:09:15.444Z,98264.76
2023-05-20T07:11:44.004Z,98266.21
2023-05-20T07:14:13.600Z,98266.27
2023-05-20T07:16:44.764Z,98265.84
2023-05-20T07:19:13.571Z,98266.64
2023-05-20T07:21:42.646Z,98266.11
2023-05-20T07:24:27.234Z,98264.46
2023-05-20T07:26:56.738Z,98260.34
2023-05-20T07:29:25.418Z,98257.23
2023-05-20T07:31:54.267Z,98259.05
2023-05-20T07:34:22.981Z,98257.11
2023-05-20T07:36:51.868Z,98261.23
2023-05-20T07:39:20.797Z,98259.42
2023-05-20T07:41:50.347Z,98262.38
2023-05-20T07:44:19.239Z,98264.52
2023-05-20T07:46:50.521Z,98261.02
2023-05-20T07:49:21.747Z,98264.34
2023-05-20T07:51:50.493Z,98261.59
2023-05-20T07:54:19.257Z,98263.82
2023-05-20T07:56:50.316Z,98262.35
2023-05-20T07:59:20.003Z,98261.93
2023-05-20T08:01:51.383Z,98261.70
2023-05-20T08:04:21.201Z,98263.20
2023-05-20T08:06:49.835Z,98260.48
2023-05-20T08:09:23.978Z,98262.77
2023-05-20T08:11:54.861Z,98260.94
2023-05-20T08:14:23.461Z,98260.55
2023-05-20T08:16:55.035Z,98259.81
2023-05-20T08:19:24.921Z,98254.78
2023-05-20T08:21:54.814Z,98250.12
2023-05-20T08:24:23.742Z,98249.33
2023-05-20T08:26:52.604Z,98247.57
2023-05-20T08:29:21.796Z,98243.33
2023-05-20T08:31:50.834Z,98237.33
2023-05-20T08:34:19.684Z,98237.13
2023-05-20T08:36:48.488Z,98239.67
2023-05-20T08:39:17.281Z,98239.53
2023-05-20T08:41:49.833Z,98236.02
2023-05-20T08:44:22.510Z,98233.25
2023-05-20T08:46:52.342Z,98235.04
2023-05-20T08:49:21.855Z,98236.23
2023-05-20T08:51:50.413Z,98235.91
2023-05-20T08:54:24.050Z,98233.25
2023-05-20T08:56:54.477Z,98227.69
2023-05-20T08:59:23.863Z,98226.62
2023-05-20T09:01:55.132Z,98226.58
2023-05-20T09:04:23.690Z,98221.92
2023-05-20T09:06:52.255Z,98221.37
2023-05-20T09:09:21.914Z,98223.20
2023-05-20T09:11:50.616Z,98219.54
2023-05-20T09:14:19.145Z,98220.71
2023-05-20T09:16:49.810Z,98220.52
2023-05-20T09:19:21.831Z,98219.90
2023-05-20T09:21:55.623Z,98216.53
2023-05-20T09:24:27.235Z,98215.21
2023-05-20T09:27:02.220Z,98220.74
2023-05-20T09:29:34.081Z,98220.61
2023-05-20T09:32:03.569Z,98223.80
2023-05-20T09:34:32.633Z,98223.45
2023-05-20T09:37:02.503Z,98223.27
2023-05-20T09:39:35.475Z,98221.04
2023-05-20T09:42:21.511Z,98217.78
2023-05-20T09:44:51.994Z,98215.27
2023-05-20T09:47:25.409Z,98215.43
2023-05-20T09:49:55.353Z,98211.27
2023-05-20T09:52:24.916Z,98213.34
2023-05-20T09:54:56.759Z,98212.52
2023-05-20T09:57:26.337Z,98202.40
2023-05-20T09:59:54.994Z,98197.29
2023-05-20T10:02:24.023Z,98194.00
2023-05-20T10:04:58.187Z,98190.23
2023-05-20T10:07:45.201Z,98188.61
2023-05-20T10:10:29.134Z,98188.65
2023-05-20T10:13:19.762Z,98185.04
2023-05-20T10:15:57.073Z,98179.25
2023-05-20T10:19:04.466Z,98177.45
2023-05-20T10:21:33.900Z,98172.98
2023-05-20T10:24:10.395Z,98169.20
2023-05-20T10:26:43.175Z,98158.01
2023-05-20T10:29:19.058Z,98157.13
2023-05-20T10:31:52.744Z,98148.41
2023-05-20T10:34:23.148Z,98148.70
2023-05-20T10:36:55.400Z,98152.89
2023-05-20T10:39:29.569Z,98155.61
2023-05-20T10:42:11.759Z,98151.94
2023-05-20T10:44:45.595Z,98151.39
2023-05-20T10:47:25.233Z,98149.34
2023-05-20T10:49:58.484Z,98144.91
2023-05-20T10:52:27.374Z,98138.63
2023-05-20T10:54:58.153Z,98133.52
2023-05-20T10:57:28.362Z,98129.30
2023-05-20T10:59:57.736Z,98125.06
2023-05-20T11:02:28.975Z,98121.69
2023-05-20T11:05:01.281Z,98116.52
2023-05-20T11:07:32.286Z,98113.31
2023-05-20T11:10:04.044Z,98111.72
2023-05-20T11:12:33.534Z,98108.15
2023-05-20T11:15:03.362Z,98109.02
2023-05-20T11:17:32.168Z,98111.88
2023-05-20T11:20:06.065Z,98109.72
2023-05-20T11:22:36.804Z,98103.30
2023-05-20T11:25:07.700Z,98099.41
2023-05-20T11:27:40.053Z,98098.05
2023-05-20T11:30:09.620Z,98101.66
2023-05-20T11:32:38.431Z,98095.21
2023-05-20T11:35:08.681Z,98089.17
2023-05-20T11:37:37.327Z,98086.94
2023-05-20T11:40:10.153Z,98081.79
2023-05-20T11:42:38.826Z,98077.69
2023-05-20T11:45:13.551Z,98080.50
2023-05-20T11:47:42.475Z,98081.98
2023-05-20T11:50:21.018Z,98077.80
2023-05-20T11:52:57.797Z,98075.40
2023-05-20T11:55:27.797Z,98075.73
2023-05-20T11:57:57.194Z,98074.23
2023-05-20T12:00:27.629Z,98068.75
2023-05-20T12:02:58.839Z,98064.62
2023-05-20T12:05:27.866Z,98060.89
2023-05-20T12:07:56.991Z,98056.91
2023-05-20T12:10:31.442Z,98061.31
2023-05-20T12:13:01.803Z,98059.88
2023-05-20T12:15:31.215Z,98059.86
2023-05-20T12:18:02.208Z,98061.95
2023-05-20T12:20:34.798Z,98055.14
2023-05-20T12:23:05.072Z,98051.90
2023-05-20T12:25:34.696Z,98044.73
2023-05-20T12:28:03.556Z,98041.56
2023-05-20T12:30:33.526Z,98041.46
2023-05-20T12:33:02.882Z,98035.63
2023-05-20T12:35:42.761Z,98034.89
2023-05-20T12:38:13.952Z,98041.29
2023-05-20T12:40:42.656Z,98049.70
2023-05-20T12:43:11.445Z,98080.77
2023-05-20T12:45:40.520Z,98107.55
2023-05-20T12:48:09.267Z,98133.45
2023-05-20T12:50:38.297Z,98163.52
2023-05-20T12:53:07.118Z,98199.53
2023-05-20T12:55:36.394Z,98225.80
2023-05-20T12:58:05.284Z,98244.98
2023-05-20T13:00:34.286Z,98257.43
2023-05-20T13:03:03.761Z,98259.30
2023-05-20T13:05:32.771Z,98250.60
2023-05-20T13:08:01.710Z,98237.34
2023-05-20T13:10:31.365Z,98228.21
2023-05-20T13:13:00.074Z,98220.31
2023-05-20T13:15:28.625Z,98214.31
2023-05-20T13:18:00.381Z,98206.13
2023-05-20T13:20:30.335Z,98206.49
2023-05-20T13:23:01.771Z,98206.98
2023-05-20T13:25:32.118Z,98198.24
2023-05-20T13:28:01.032Z,98186.05
2023-05-20T13:30:31.066Z,98187.02
2023-05-20T13:33:00.295Z,98184.52
2023-05-20T13:35:29.041Z,98187.73
2023-05-20T13:37:57.679Z,98195.64
2023-05-20T13:40:27.239Z,98207.41
2023-05-20T13:42:56.671Z,98221.11
2023-05-20T13:45:25.824Z,98226.90
2023-05-20T13:47:56.081Z,98228.78
2023-05-20T13:50:26.548Z,98226.98
2023-05-20T13:52:55.136Z,98220.72
2023-05-20T13:55:24.926Z,98213.74
2023-05-20T13:57:56.785Z,98206.40
2023-05-20T14:00:27.278Z,98199.83
2023-05-20T14:02:59.389Z,98202.60
2023-05-20T14:05:28.143Z,98197.49
2023-05-20T14:08:00.255Z,98188.36
2023-05-20T14:10:29.609Z,98184.34
2023-05-20T14:13:00.797Z,98181.08
2023-05-20T14:15:32.463Z,98175.26
2023-05-20T14:18:01.503Z,98169.05
2023-05-20T14:20:30.315Z,98162.05
2023-05-20T14:23:01.199Z,98160.65
2023-05-20T14:25:29.916Z,98154.45
2023-05-20T14:27:58.579Z,98151.96
2023-05-20T14:30:31.831Z,98150.67
2023-05-20T14:33:01.279Z,98138.30
2023-05-20T14:35:29.992Z,98130.11
2023-05-20T14:38:01.459Z,98115.77
2023-05-20T14:40:33.298Z,98105.02
2023-05-20T14:43:02.135Z,98094.77
2023-05-20T14:45:30.693Z,98082.67
2023-05-20T14:47:59.369Z,98077.14
2023-05-20T14:50:28.002Z,98074.89
2023-05-20T14:52:56.665Z,98074.11
2023-05-20T14:55:25.717Z,98075.84
2023-05-20T14:57:54.562Z,98076.73
2023-05-20T15:00:23.229Z,98075.70
2023-05-20T15:02:52.272Z,98072.83
2023-05-20T15:05:21.118Z,98071.51
2023-05-20T15:07:50.412Z,98064.58
2023-05-20T15:10:19.070Z,98061.02
2023-05-20T15:12:47.718Z,98062.81
2023-05-20T15:15:16.426Z,98063.16
2023-05-20T15:17:50.204Z,98065.58
2023-05-20T15:20:18.998Z,98064.42
2023-05-20T15:22:48.552Z,98059.71
2023-05-20T15:25:17.334Z,98058.35
2023-05-20T15:27:46.140Z,98058.30
2023-05-20T15:30:15.386Z,98059.16
2023-05-20T15:32:44.203Z,98053.34
2023-05-20T15:35:12.755Z,98047.15
2023-05-20T15:37:41.578Z,98041.13
2023-05-20T15:40:12.883Z,98040.31
2023-05-20T15:42:42.553Z,98037.19
2023-05-20T15:45:11.955Z,98040.64
2023-05-20T15:47:41.101Z,98046.75
2023-05-20T15:50:11.504Z,98046.77
2023-05-20T15:52:41.035Z,98044.38
2023-05-20T15:55:10.243Z,98047.35
2023-05-20T15:57:39.000Z,98045.39
2023-05-20T16:00:11.809Z,98048.02
2023-05-20T16:02:41.607Z,98049.20
2023-05-20T16:05:10.621Z,98051.35
2023-05-20T16:07:39.260Z,98048.98
2023-05-20T16:10:11.674Z,98045.45
2023-05-20T16:12:40.541Z,98041.73
2023-05-20T16:15:13.103Z,98041.95
2023-05-20T16:17:42.062Z,98037.40
2023-05-20T16:20:11.548Z,98030.76
2023-05-20T16:22:40.240Z,98025.34
2023-05-20T16:25:11.208Z,98025.80
2023-05-20T16:27:39.749Z,98022.65
2023-05-20T16:30:10.224Z,98026.85
2023-05-20T16:32:40.037Z,98026.23
2023-05-20T16:35:09.388Z,98026.87
2023-05-20T16:37:38.003Z,98023.89
2023-05-20T16:40:09.831Z,98022.27
2023-05-20T16:42:39.992Z,98021.23
2023-05-20T16:45:09.067Z,98019.89
2023-05-20T16:47:37.840Z,98019.05
2023-05-20T16:50:07.153Z,98020.17
2023-05-20T16:52:38.035Z,98020.77
2023-05-20T16:55:08.758Z,98023.89
2023-05-20T16:57:37.646Z,98026.51
2023-05-20T17:00:09.117Z,98032.07
2023-05-20T17:02:37.726Z,98039.02
2023-05-20T17:05:15.481Z,98039.80
2023-05-20T17:07:45.444Z,98037.68
2023-05-20T17:10:14.721Z,98039.61
2023-05-20T17:12:43.257Z,98036.31
2023-05-20T17:15:11.962Z,98036.92
2023-05-20T17:17:40.944Z,98039.80
2023-05-20T17:20:10.398Z,98043.08
2023-05-20T17:22:39.036Z,98042.83
2023-05-20T17:25:08.185Z,98044.00
2023-05-20T17:27:36.888Z,98048.06
2023-05-20T17:30:06.166Z,98048.74
2023-05-20T17:32:35.205Z,98050.44
2023-05-20T17:35:05.874Z,98056.42
2023-05-20T17:37:37.984Z,98067.14
2023-05-20T17:40:07.119Z,98066.98
2023-05-20T17:42:35.816Z,98061.79
2023-05-20T17:45:04.892Z,98058.02
2023-05-20T17:47:33.529Z,98056.29
2023-05-20T17:50:02.976Z,98054.58
2023-05-20T17:52:31.640Z,98053.59
2023-05-20T17:55:00.302Z,98052.57
2023-05-20T17:57:29.393Z,98055.67
2023-05-20T17:59:58.103Z,98057.41
2023-05-20T18:02:26.815Z,98056.14
2023-05-20T18:04:55.494Z,98056.99
2023-05-20T18:07:27.207Z,98061.17
2023-05-20T18:09:56.115Z,98066.75
2023-05-20T18:12:24.887Z,98072.41
2023-05-20T18:14:53.466Z,98077.81
2023-05-20T18:17:22.201Z,98079.09
2023-05-20T18:19:50.810Z,98082.63
2023-05-20T18:22:23.885Z,98084.26
2023-05-20T18:24:52.404Z,98087.52
2023-05-20T18:27:21.266Z,98082.48
2023-05-20T18:29:50.384Z,98083.15
2023-05-20T18:32:19.082Z,98083.18
2023-05-20T18:34:47.704Z,98083.48
2023-05-20T18:37:18.960Z,98081.30
2023-05-20T18:39:51.043Z,98076.47
2023-05-20T18:42:22.434Z,98075.38
2023-05-20T18:44:51.166Z,98076.89
2023-05-20T18:47:20.201Z,98084.59
2023-05-20T18:49:51.601Z,98088.50
2023-05-20T18:52:20.309Z,98095.23
2023-05-20T18:54:51.717Z,98098.46
2023-05-20T18:57:20.720Z,98101.09
2023-05-20T18:59:49.368Z,98105.31
2023-05-20T19:02:18.153Z,98101.42
2023-05-20T19:04:50.009Z,98102.11
2023-05-20T19:07:23.738Z,98099.86
2023-05-20T19:09:52.559Z,98096.69
2023-05-20T19:12:21.482Z,98101.52
2023-05-20T19:14:50.192Z,98104.13
2023-05-20T19:17:20.944Z,98106.91
2023-05-20T19:19:52.356Z,98106.73
2023-05-20T19:22:20.970Z,98111.79
2023-05-20T19:24:50.363Z,98114.48
2023-05-20T19:27:19.018Z,98113.36
2023-05-20T19:29:47.753Z,98113.23
2023-05-20T19:32:16.681Z,98117.42
2023-05-20T19:34:45.303Z,98121.48
2023-05-20T19:37:14.298Z,98120.85
2023-05-20T19:39:43.018Z,98121.13
2023-05-20T19:42:11.643Z,98116.79
2023-05-20T19:44:40.254Z,98114.27
2023-05-20T19:47:08.896Z,98116.66
2023-05-20T19:49:37.746Z,98120.60
2023-05-20T19:52:07.383Z,98116.73
2023-05-20T19:54:36.371Z,98115.02
2023-05-20T19:57:05.754Z,98126.20
2023-05-20T19:59:34.301Z,98127.20
2023-05-20T20:02:03.473Z,98121.98
2023-05-20T20:04:32.216Z,98114.05
2023-05-20T20:07:01.302Z,98112.42
2023-05-20T20:09:30.123Z,98113.12
2023-05-20T20:11:59.010Z,98113.16
2023-05-20T20:14:29.818Z,98115.74
2023-05-20T20:17:00.142Z,98117.16
2023-05-20T20:19:29.555Z,98113.73
2023-05-20T20:21:58.488Z,98112.45
2023-05-20T20:24:27.118Z,98105.67
2023-05-20T20:26:57.111Z,98102.48
2023-05-20T20:29:26.558Z,98102.67
2023-05-20T20:31:56.580Z,98099.11
2023-05-20T20:34:25.383Z,98100.73
2023-05-20T20:36:54.836Z,98105.79
2023-05-20T20:39:25.415Z,98104.65
2023-05-20T20:41:54.782Z,98105.12
2023-05-20T20:44:23.491Z,98118.87
2023-05-20T20:46:52.940Z,98130.58
2023-05-20T20:49:23.205Z,98123.70
2023-05-20T20:51:53.193Z,98121.13
2023-05-20T20:54:21.842Z,98123.27
2023-05-20T20:56:52.195Z,98122.14
2023-05-20T20:59:26.707Z,98115.95
2023-05-20T21:01:55.435Z,98116.61
2023-05-20T21:04:25.352Z,98119.02
2023-05-20T21:06:53.930Z,98114.43
2023-05-20T21:09:22.870Z,98107.27
2023-05-20T21:11:51.605Z,98101.49
2023-05-20T21:14:20.263Z,98097.91
2023-05-20T21:16:48.899Z,98096.20
2023-05-20T21:19:17.814Z,98094.16
2023-05-20T21:21:46.455Z,98090.45
2023-05-20T21:24:15.017Z,98083.61
2023-05-20T21:26:44.615Z,98085.30
2023-05-20T21:29:13.240Z,98080.24
2023-05-20T21:31:41.860Z,98082.95
2023-05-20T21:34:10.426Z,98084.99
2023-05-20T21:36:39.030Z,98078.30
2023-05-20T21:39:07.710Z,98082.50
2023-05-20T21:41:36.354Z,98083.69
2023-05-20T21:44:06.225Z,98085.54
2023-05-20T21:46:34.846Z,98083.02
2023-05-20T21:49:03.511Z,98078.89
2023-05-20T21:51:32.448Z,98082.23
2023-05-20T21:54:01.133Z,98098.95
2023-05-20T21:56:29.736Z,98103.23
2023-05-20T21:58:58.477Z,98096.87
2023-05-20T22:01:27.135Z,98091.86
2023-05-20T22:03:56.860Z,98085.52
2023-05-20T22:06:26.286Z,98081.06
2023-05-20T22:08:55.021Z,98085.63
2023-05-20T22:11:24.143Z,98082.25
2023-05-20T22:13:53.877Z,98080.58
2023-05-20T22:16:25.585Z,98078.51
2023-05-20T22:18:54.436Z,98081.09
2023-05-20T22:21:24.896Z,98080.52
2023-05-20T22:23:53.564Z,98080.33
2023-05-20T22:26:22.484Z,98085.69
2023-05-20T22:28:51.281Z,98088.81
2023-05-20T22:31:19.911Z,98091.04
2023-05-20T22:33:48.559Z,98094.94
2023-05-20T22:36:20.177Z,98099.21
2023-05-20T22:38:48.760Z,98094.05
2023-05-20T22:41:17.490Z,98090.30
2023-05-20T22:43:46.149Z,98091.63
2023-05-20T22:46:14.787Z,98089.38
2023-05-20T22:48:45.019Z,98089.21
2023-05-20T22:51:14.645Z,98086.05
2023-05-20T22:53:43.251Z,98090.62
2023-05-20T22:56:12.038Z,98091.06
2023-05-20T22:58:41.065Z,98095.48
2023-05-20T23:01:10.685Z,98096.63
2023-05-20T23:03:40.196Z,98096.41
2023-05-20T23:06:08.888Z,98090.06
2023-05-20T23:08:43.123Z,98085.41
2023-05-20T23:11:11.849Z,98084.69
2023-05-20T23:13:43.143Z,98081.56
2023-05-20T23:16:12.541Z,98080.80
2023-05-20T23:18:43.144Z,98080.30
2023-05-20T23:21:11.992Z,98082.33
2023-05-20T23:23:41.168Z,98084.20
2023-05-20T23:26:13.081Z,98085.20
2023-05-20T23:28:42.089Z,98084.98
2023-05-20T23:31:11.129Z,98086.70
2023-05-20T23:33:39.771Z,98084.67
2023-05-20T23:36:09.987Z,98086.41
2023-05-20T23:38:38.859Z,98085.96
2023-05-20T23:41:07.457Z,98084.79
2023-05-20T23:43:41.243Z,98079.82
2023-05-20T23:46:10.304Z,98073.52
2023-05-20T23:48:38.936Z,98069.16
2023-05-20T23:51:12.117Z,98069.31
2023-05-20T23:53:42.776Z,98068.44
2023-05-20T23:56:11.493Z,98068.80
2023-05-20T23:58:40.169Z,98068.00
